sensor_id;sensor_type;location;lat;lon;timestamp;temperature;humidity
23385;DHT22;11865;45.394;10.978;2022-07-10T00:01:33;20.80;99.90
23385;DHT22;11865;45.394;10.978;2022-07-10T00:04:01;20.70;99.90
23385;DHT22;11865;45.394;10.978;2022-07-10T00:06:28;20.80;99.90
23385;DHT22;11865;45.394;10.978;2022-07-10T00:08:55;20.70;99.90
23385;DHT22;11865;45.394;10.978;2022-07-10T00:11:22;20.80;99.90
23385;DHT22;11865;45.394;10.978;2022-07-10T00:13:50;20.90;99.90
23385;DHT22;11865;45.394;10.978;2022-07-10T00:16:17;20.90;99.90
23385;DHT22;11865;45.394;10.978;2022-07-10T00:18:44;21.00;99.90
23385;DHT22;11865;45.394;10.978;2022-07-10T00:21:12;21.10;99.90
23385;DHT22;11865;45.394;10.978;2022-07-10T00:23:39;21.10;99.90
23385;DHT22;11865;45.394;10.978;2022-07-10T00:26:06;21.10;99.90
23385;DHT22;11865;45.394;10.978;2022-07-10T00:28:34;20.90;99.90
23385;DHT22;11865;45.394;10.978;2022-07-10T00:31:01;20.90;99.90
23385;DHT22;11865;45.394;10.978;2022-07-10T00:33:29;20.90;99.90
23385;DHT22;11865;45.394;10.978;2022-07-10T00:35:59;20.90;99.90
23385;DHT22;11865;45.394;10.978;2022-07-10T00:38:26;20.80;99.90
23385;DHT22;11865;45.394;10.978;2022-07-10T00:40:53;20.80;99.90
23385;DHT22;11865;45.394;10.978;2022-07-10T00:43:21;20.80;99.90
23385;DHT22;11865;45.394;10.978;2022-07-10T00:45:48;20.90;99.90
23385;DHT22;11865;45.394;10.978;2022-07-10T00:48:16;20.90;99.90
23385;DHT22;11865;45.394;10.978;2022-07-10T00:50:44;20.80;99.90
23385;DHT22;11865;45.394;10.978;2022-07-10T00:53:14;20.70;99.90
23385;DHT22;11865;45.394;10.978;2022-07-10T00:55:42;20.60;99.90
23385;DHT22;11865;45.394;10.978;2022-07-10T00:58:10;20.60;99.90
23385;DHT22;11865;45.394;10.978;2022-07-10T01:00:38;20.50;99.90
23385;DHT22;11865;45.394;10.978;2022-07-10T01:03:05;20.40;99.90
23385;DHT22;11865;45.394;10.978;2022-07-10T01:05:33;20.40;99.90
23385;DHT22;11865;45.394;10.978;2022-07-10T01:08:00;20.40;99.90
23385;DHT22;11865;45.394;10.978;2022-07-10T01:10:27;20.50;99.90
23385;DHT22;11865;45.394;10.978;2022-07-10T01:12:54;20.20;99.90
23385;DHT22;11865;45.394;10.978;2022-07-10T01:15:22;20.10;99.90
23385;DHT22;11865;45.394;10.978;2022-07-10T01:17:49;20.00;99.90
23385;DHT22;11865;45.394;10.978;2022-07-10T01:20:20;20.00;99.90
23385;DHT22;11865;45.394;10.978;2022-07-10T01:22:47;19.80;99.90
23385;DHT22;11865;45.394;10.978;2022-07-10T01:25:14;19.70;99.90
23385;DHT22;11865;45.394;10.978;2022-07-10T01:27:44;19.80;99.90
23385;DHT22;11865;45.394;10.978;2022-07-10T01:30:11;19.80;99.90
23385;DHT22;11865;45.394;10.978;2022-07-10T01:32:39;19.70;99.90
23385;DHT22;11865;45.394;10.978;2022-07-10T01:35:07;19.80;99.90
23385;DHT22;11865;45.394;10.978;2022-07-10T01:37:35;19.70;99.90
23385;DHT22;11865;45.394;10.978;2022-07-10T01:40:02;19.60;99.90
23385;DHT22;11865;45.394;10.978;2022-07-10T01:42:30;19.60;99.90
23385;DHT22;11865;45.394;10.978;2022-07-10T01:44:57;19.70;99.90
23385;DHT22;11865;45.394;10.978;2022-07-10T01:47:32;19.70;99.90
23385;DHT22;11865;45.394;10.978;2022-07-10T01:49:59;19.60;99.90
23385;DHT22;11865;45.394;10.978;2022-07-10T01:52:26;19.60;99.90
23385;DHT22;11865;45.394;10.978;2022-07-10T01:54:54;19.50;99.90
23385;DHT22;11865;45.394;10.978;2022-07-10T01:57:21;19.40;99.90
23385;DHT22;11865;45.394;10.978;2022-07-10T01:59:48;19.30;99.90
23385;DHT22;11865;45.394;10.978;2022-07-10T02:02:15;19.50;99.90
23385;DHT22;11865;45.394;10.978;2022-07-10T02:04:43;19.50;99.90
23385;DHT22;11865;45.394;10.978;2022-07-10T02:07:11;19.70;99.90
23385;DHT22;11865;45.394;10.978;2022-07-10T02:09:40;20.00;99.90
23385;DHT22;11865;45.394;10.978;2022-07-10T02:12:08;20.20;99.90
23385;DHT22;11865;45.394;10.978;2022-07-10T02:14:36;20.60;99.90
23385;DHT22;11865;45.394;10.978;2022-07-10T02:17:03;20.40;99.90
23385;DHT22;11865;45.394;10.978;2022-07-10T02:19:31;20.20;99.90
23385;DHT22;11865;45.394;10.978;2022-07-10T02:21:59;20.10;99.90
23385;DHT22;11865;45.394;10.978;2022-07-10T02:24:26;19.90;99.90
23385;DHT22;11865;45.394;10.978;2022-07-10T02:26:53;20.10;99.90
23385;DHT22;11865;45.394;10.978;2022-07-10T02:29:22;20.30;99.90
23385;DHT22;11865;45.394;10.978;2022-07-10T02:31:50;20.20;99.90
23385;DHT22;11865;45.394;10.978;2022-07-10T02:34:17;20.40;99.90
23385;DHT22;11865;45.394;10.978;2022-07-10T02:36:45;20.10;99.90
23385;DHT22;11865;45.394;10.978;2022-07-10T02:39:14;20.30;99.90
23385;DHT22;11865;45.394;10.978;2022-07-10T02:41:41;20.60;99.90
23385;DHT22;11865;45.394;10.978;2022-07-10T02:44:08;21.00;99.90
23385;DHT22;11865;45.394;10.978;2022-07-10T02:46:36;20.70;99.90
23385;DHT22;11865;45.394;10.978;2022-07-10T02:49:03;20.60;99.90
23385;DHT22;11865;45.394;10.978;2022-07-10T02:51:31;20.60;99.90
23385;DHT22;11865;45.394;10.978;2022-07-10T02:53:58;20.80;99.90
23385;DHT22;11865;45.394;10.978;2022-07-10T02:56:26;20.60;99.90
23385;DHT22;11865;45.394;10.978;2022-07-10T02:58:53;20.40;99.90
23385;DHT22;11865;45.394;10.978;2022-07-10T03:01:20;20.10;99.90
23385;DHT22;11865;45.394;10.978;2022-07-10T03:03:48;19.90;99.90
23385;DHT22;11865;45.394;10.978;2022-07-10T03:06:15;19.60;99.90
23385;DHT22;11865;45.394;10.978;2022-07-10T03:08:42;19.40;99.90
23385;DHT22;11865;45.394;10.978;2022-07-10T03:11:10;19.30;99.90
23385;DHT22;11865;45.394;10.978;2022-07-10T03:13:37;19.30;99.90
23385;DHT22;11865;45.394;10.978;2022-07-10T03:16:04;19.30;99.90
23385;DHT22;11865;45.394;10.978;2022-07-10T03:20:59;19.20;99.90
23385;DHT22;11865;45.394;10.978;2022-07-10T03:23:26;19.10;99.90
23385;DHT22;11865;45.394;10.978;2022-07-10T03:25:54;19.10;99.90
23385;DHT22;11865;45.394;10.978;2022-07-10T03:28:21;19.10;99.90
23385;DHT22;11865;45.394;10.978;2022-07-10T03:30:49;19.10;99.90
23385;DHT22;11865;45.394;10.978;2022-07-10T03:33:16;19.10;99.90
23385;DHT22;11865;45.394;10.978;2022-07-10T03:35:43;19.10;99.90
23385;DHT22;11865;45.394;10.978;2022-07-10T03:38:10;19.30;99.90
23385;DHT22;11865;45.394;10.978;2022-07-10T03:40:38;19.60;99.90
23385;DHT22;11865;45.394;10.978;2022-07-10T03:43:05;20.00;99.90
23385;DHT22;11865;45.394;10.978;2022-07-10T03:45:33;20.40;99.90
23385;DHT22;11865;45.394;10.978;2022-07-10T03:48:00;20.40;99.90
23385;DHT22;11865;45.394;10.978;2022-07-10T03:50:27;20.60;99.90
23385;DHT22;11865;45.394;10.978;2022-07-10T03:52:55;20.70;99.90
23385;DHT22;11865;45.394;10.978;2022-07-10T03:55:22;20.80;99.90
23385;DHT22;11865;45.394;10.978;2022-07-10T03:57:49;21.00;99.90
23385;DHT22;11865;45.394;10.978;2022-07-10T04:00:30;20.90;99.90
23385;DHT22;11865;45.394;10.978;2022-07-10T04:03:01;20.30;99.90
23385;DHT22;11865;45.394;10.978;2022-07-10T04:05:29;20.20;99.90
23385;DHT22;11865;45.394;10.978;2022-07-10T04:07:56;20.30;99.90
23385;DHT22;11865;45.394;10.978;2022-07-10T04:10:24;20.50;99.90
23385;DHT22;11865;45.394;10.978;2022-07-10T04:12:52;20.70;99.90
23385;DHT22;11865;45.394;10.978;2022-07-10T04:15:20;20.70;99.90
23385;DHT22;11865;45.394;10.978;2022-07-10T04:17:48;20.80;99.90
23385;DHT22;11865;45.394;10.978;2022-07-10T04:20:16;20.90;99.90
23385;DHT22;11865;45.394;10.978;2022-07-10T04:22:43;21.10;99.90
23385;DHT22;11865;45.394;10.978;2022-07-10T04:25:11;21.00;99.90
23385;DHT22;11865;45.394;10.978;2022-07-10T04:27:39;21.10;99.90
23385;DHT22;11865;45.394;10.978;2022-07-10T04:30:06;21.10;99.90
23385;DHT22;11865;45.394;10.978;2022-07-10T04:32:33;21.20;99.90
23385;DHT22;11865;45.394;10.978;2022-07-10T04:35:01;21.20;99.90
23385;DHT22;11865;45.394;10.978;2022-07-10T04:37:28;21.20;99.90
23385;DHT22;11865;45.394;10.978;2022-07-10T04:39:56;21.30;99.90
23385;DHT22;11865;45.394;10.978;2022-07-10T04:42:25;21.50;99.90
23385;DHT22;11865;45.394;10.978;2022-07-10T04:44:53;21.50;99.90
23385;DHT22;11865;45.394;10.978;2022-07-10T04:47:20;21.50;99.90
23385;DHT22;11865;45.394;10.978;2022-07-10T04:49:48;21.70;99.90
23385;DHT22;11865;45.394;10.978;2022-07-10T04:52:15;22.10;99.90
23385;DHT22;11865;45.394;10.978;2022-07-10T04:54:42;22.50;99.90
23385;DHT22;11865;45.394;10.978;2022-07-10T04:57:10;22.70;99.90
23385;DHT22;11865;45.394;10.978;2022-07-10T04:59:37;23.50;99.90
23385;DHT22;11865;45.394;10.978;2022-07-10T05:02:04;24.20;99.90
23385;DHT22;11865;45.394;10.978;2022-07-10T05:04:32;24.70;99.90
23385;DHT22;11865;45.394;10.978;2022-07-10T05:06:59;24.80;99.90
23385;DHT22;11865;45.394;10.978;2022-07-10T05:09:26;25.10;99.90
23385;DHT22;11865;45.394;10.978;2022-07-10T05:11:54;25.20;99.90
23385;DHT22;11865;45.394;10.978;2022-07-10T05:14:21;25.70;98.50
23385;DHT22;11865;45.394;10.978;2022-07-10T05:16:48;25.90;99.70
23385;DHT22;11865;45.394;10.978;2022-07-10T05:19:16;26.20;97.60
23385;DHT22;11865;45.394;10.978;2022-07-10T05:21:43;26.50;95.20
23385;DHT22;11865;45.394;10.978;2022-07-10T05:24:10;27.00;98.60
23385;DHT22;11865;45.394;10.978;2022-07-10T05:26:38;27.10;99.70
23385;DHT22;11865;45.394;10.978;2022-07-10T05:29:05;27.70;99.00
23385;DHT22;11865;45.394;10.978;2022-07-10T05:31:32;28.30;98.30
23385;DHT22;11865;45.394;10.978;2022-07-10T05:34:00;28.80;96.00
23385;DHT22;11865;45.394;10.978;2022-07-10T05:36:27;29.50;92.70
23385;DHT22;11865;45.394;10.978;2022-07-10T05:38:54;29.30;92.00
23385;DHT22;11865;45.394;10.978;2022-07-10T05:41:21;29.10;91.70
23385;DHT22;11865;45.394;10.978;2022-07-10T05:43:49;28.60;92.10
23385;DHT22;11865;45.394;10.978;2022-07-10T05:46:16;28.80;91.60
23385;DHT22;11865;45.394;10.978;2022-07-10T05:48:43;29.20;92.00
23385;DHT22;11865;45.394;10.978;2022-07-10T18:59:04;29.50;93.80
23385;DHT22;11865;45.394;10.978;2022-07-10T19:06:27;29.20;96.00
23385;DHT22;11865;45.394;10.978;2022-07-10T19:11:22;28.80;99.60
23385;DHT22;11865;45.394;10.978;2022-07-10T19:13:50;28.50;99.60
23385;DHT22;11865;45.394;10.978;2022-07-10T19:16:19;28.40;99.70
23385;DHT22;11865;45.394;10.978;2022-07-10T19:18:47;28.30;99.80
23385;DHT22;11865;45.394;10.978;2022-07-10T19:21:15;28.20;99.70
23385;DHT22;11865;45.394;10.978;2022-07-10T19:23:47;28.10;99.10
23385;DHT22;11865;45.394;10.978;2022-07-10T19:26:14;27.90;99.30
23385;DHT22;11865;45.394;10.978;2022-07-10T19:28:42;27.70;99.90
23385;DHT22;11865;45.394;10.978;2022-07-10T19:31:09;27.60;98.70
23385;DHT22;11865;45.394;10.978;2022-07-10T19:33:39;27.50;99.10
23385;DHT22;11865;45.394;10.978;2022-07-10T19:36:07;27.40;99.30
23385;DHT22;11865;45.394;10.978;2022-07-10T19:38:35;27.10;99.90
23385;DHT22;11865;45.394;10.978;2022-07-10T19:41:02;27.00;99.20
23385;DHT22;11865;45.394;10.978;2022-07-10T19:43:36;26.90;98.40
23385;DHT22;11865;45.394;10.978;2022-07-10T19:46:03;26.90;98.90
23385;DHT22;11865;45.394;10.978;2022-07-10T19:48:32;26.80;99.10
23385;DHT22;11865;45.394;10.978;2022-07-10T19:51:00;26.70;99.30
23385;DHT22;11865;45.394;10.978;2022-07-10T19:53:28;26.60;99.60
23385;DHT22;11865;45.394;10.978;2022-07-10T19:55:55;26.50;99.90
23385;DHT22;11865;45.394;10.978;2022-07-10T19:58:22;26.60;99.50
23385;DHT22;11865;45.394;10.978;2022-07-10T20:00:50;26.50;99.50
23385;DHT22;11865;45.394;10.978;2022-07-10T20:03:20;26.40;99.50
23385;DHT22;11865;45.394;10.978;2022-07-10T20:05:47;26.40;99.50
23385;DHT22;11865;45.394;10.978;2022-07-10T20:08:15;26.40;99.00
23385;DHT22;11865;45.394;10.978;2022-07-10T20:10:42;26.30;98.90
23385;DHT22;11865;45.394;10.978;2022-07-10T20:13:10;26.40;99.00
23385;DHT22;11865;45.394;10.978;2022-07-10T20:15:37;26.40;99.30
23385;DHT22;11865;45.394;10.978;2022-07-10T20:18:24;26.30;99.80
23385;DHT22;11865;45.394;10.978;2022-07-10T20:20:51;26.20;99.40
23385;DHT22;11865;45.394;10.978;2022-07-10T20:23:19;26.10;99.60
